sensor_id;sensor_type;location;lat;lon;timestamp;pressure;altitude;pressure_sealevel;temperature;humidity
64862;BME280;62652;42.274;-71.436;2023-10-31T00:00:01;100160.0;;;10.388888888888891;100.0
64862;BME280;62652;42.274;-71.436;2023-10-31T00:01:01;100160.0;;;10.277777777777779;100.0
64862;BME280;62652;42.274;-71.436;2023-10-31T00:02:01;100160.0;;;10.277777777777779;100.0
64862;BME280;62652;42.274;-71.436;2023-10-31T00:03:00;100160.0;;;10.277777777777779;100.0
64862;BME280;62652;42.274;-71.436;2023-10-31T00:04:01;100170.0;;;10.222222222222221;100.0
64862;BME280;62652;42.274;-71.436;2023-10-31T00:05:01;100180.0;;;10.222222222222221;100.0
64862;BME280;62652;42.274;-71.436;2023-10-31T00:06:02;100190.0;;;10.111111111111112;100.0
64862;BME280;62652;42.274;-71.436;2023-10-31T00:07:00;100180.0;;;10.222222222222221;100.0
64862;BME280;62652;42.274;-71.436;2023-10-31T00:08:00;100170.0;;;10.0;100.0
64862;BME280;62652;42.274;-71.436;2023-10-31T00:09:01;100160.0;;;10.0;100.0
64862;BME280;62652;42.274;-71.436;2023-10-31T00:10:01;100160.0;;;9.888888888888888;100.0
64862;BME280;62652;42.274;-71.436;2023-10-31T00:11:01;100160.0;;;9.888888888888888;100.0
64862;BME280;62652;42.274;-71.436;2023-10-31T00:12:01;100160.0;;;9.888888888888888;100.0
64862;BME280;62652;42.274;-71.436;2023-10-31T00:13:00;100160.0;;;9.777777777777779;100.0
64862;BME280;62652;42.274;-71.436;2023-10-31T00:14:00;100170.0;;;9.777777777777779;100.0
64862;BME280;62652;42.274;-71.436;2023-10-31T00:15:00;100190.0;;;9.888888888888888;100.0
64862;BME280;62652;42.274;-71.436;2023-10-31T00:16:01;100200.0;;;9.777777777777779;100.0
64862;BME280;62652;42.274;-71.436;2023-10-31T00:17:01;100210.0;;;9.888888888888888;100.0
64862;BME280;62652;42.274;-71.436;2023-10-31T00:18:00;100210.0;;;9.777777777777779;100.0
64862;BME280;62652;42.274;-71.436;2023-10-31T00:19:00;100200.0;;;9.777777777777779;100.0
64862;BME280;62652;42.274;-71.436;2023-10-31T00:20:01;100190.0;;;9.777777777777779;100.0
64862;BME280;62652;42.274;-71.436;2023-10-31T00:21:00;100190.0;;;9.777777777777779;100.0
64862;BME280;62652;42.274;-71.436;2023-10-31T00:22:00;100190.0;;;9.777777777777779;100.0
64862;BME280;62652;42.274;-71.436;2023-10-31T00:23:01;100200.0;;;9.777777777777779;100.0
64862;BME280;62652;42.274;-71.436;2023-10-31T00:24:01;100200.0;;;9.777777777777779;100.0
64862;BME280;62652;42.274;-71.436;2023-10-31T00:25:01;100210.0;;;9.777777777777779;100.0
64862;BME280;62652;42.274;-71.436;2023-10-31T00:26:00;100210.0;;;9.777777777777779;100.0
64862;BME280;62652;42.274;-71.436;2023-10-31T00:27:01;100210.0;;;9.777777777777779;100.0
64862;BME280;62652;42.274;-71.436;2023-10-31T00:28:01;100210.0;;;9.777777777777779;100.0
64862;BME280;62652;42.274;-71.436;2023-10-31T00:29:00;100200.0;;;9.888888888888888;100.0
64862;BME280;62652;42.274;-71.436;2023-10-31T00:30:01;100200.0;;;9.777777777777779;100.0
64862;BME280;62652;42.274;-71.436;2023-10-31T00:31:00;100200.0;;;9.777777777777779;100.0
64862;BME280;62652;42.274;-71.436;2023-10-31T00:32:01;100210.0;;;9.777777777777779;100.0
64862;BME280;62652;42.274;-71.436;2023-10-31T00:33:01;100220.0;;;9.888888888888888;100.0
64862;BME280;62652;42.274;-71.436;2023-10-31T00:34:01;100220.0;;;9.888888888888888;100.0
64862;BME280;62652;42.274;-71.436;2023-10-31T00:35:01;100230.0;;;9.888888888888888;100.0
64862;BME280;62652;42.274;-71.436;2023-10-31T00:36:01;100240.0;;;9.888888888888888;100.0
64862;BME280;62652;42.274;-71.436;2023-10-31T00:37:01;100240.0;;;9.888888888888888;100.0
64862;BME280;62652;42.274;-71.436;2023-10-31T00:38:00;100230.0;;;9.888888888888888;100.0
64862;BME280;62652;42.274;-71.436;2023-10-31T00:39:00;100220.0;;;9.777777777777779;100.0
64862;BME280;62652;42.274;-71.436;2023-10-31T00:40:00;100210.0;;;9.777777777777779;100.0
64862;BME280;62652;42.274;-71.436;2023-10-31T00:41:00;100210.0;;;9.777777777777779;100.0
64862;BME280;62652;42.274;-71.436;2023-10-31T00:42:01;100220.0;;;9.777777777777779;100.0
64862;BME280;62652;42.274;-71.436;2023-10-31T00:43:01;100230.0;;;9.777777777777779;100.0
64862;BME280;62652;42.274;-71.436;2023-10-31T00:44:01;100240.0;;;9.777777777777779;100.0
64862;BME280;62652;42.274;-71.436;2023-10-31T00:45:00;100230.0;;;9.888888888888888;100.0
64862;BME280;62652;42.274;-71.436;2023-10-31T00:46:03;100230.0;;;9.777777777777779;100.0
64862;BME280;62652;42.274;-71.436;2023-10-31T00:47:00;100230.0;;;9.777777777777779;100.0
64862;BME280;62652;42.274;-71.436;2023-10-31T00:48:01;100240.0;;;10.0;100.0
64862;BME280;62652;42.274;-71.436;2023-10-31T00:49:00;100230.0;;;10.0;100.0
64862;BME280;62652;42.274;-71.436;2023-10-31T00:50:01;100220.0;;;9.888888888888888;100.0
64862;BME280;62652;42.274;-71.436;2023-10-31T00:51:01;100220.0;;;9.888888888888888;100.0
64862;BME280;62652;42.274;-71.436;2023-10-31T00:52:01;100220.0;;;9.777777777777779;100.0
64862;BME280;62652;42.274;-71.436;2023-10-31T00:53:01;100230.0;;;9.777777777777779;100.0
64862;BME280;62652;42.274;-71.436;2023-10-31T00:54:00;100230.0;;;9.777777777777779;100.0
64862;BME280;62652;42.274;-71.436;2023-10-31T00:55:01;100230.0;;;9.777777777777779;100.0
64862;BME280;62652;42.274;-71.436;2023-10-31T00:56:02;100230.0;;;9.777777777777779;100.0
64862;BME280;62652;42.274;-71.436;2023-10-31T00:57:00;100240.0;;;9.777777777777779;100.0
64862;BME280;62652;42.274;-71.436;2023-10-31T00:58:01;100240.0;;;9.777777777777779;100.0
64862;BME280;62652;42.274;-71.436;2023-10-31T00:59:01;100230.0;;;9.722222222222221;100.0
64862;BME280;62652;42.274;-71.436;2023-10-31T01:00:01;100240.0;;;9.722222222222221;100.0
64862;BME280;62652;42.274;-71.436;2023-10-31T01:01:01;100240.0;;;9.722222222222221;100.0
64862;BME280;62652;42.274;-71.436;2023-10-31T01:02:01;100240.0;;;9.611111111111109;100.0
64862;BME280;62652;42.274;-71.436;2023-10-31T01:03:01;100240.0;;;9.611111111111109;100.0
64862;BME280;62652;42.274;-71.436;2023-10-31T01:04:01;100240.0;;;9.611111111111109;100.0
64862;BME280;62652;42.274;-71.436;2023-10-31T01:05:01;100240.0;;;9.722222222222221;100.0
64862;BME280;62652;42.274;-71.436;2023-10-31T01:06:00;100240.0;;;9.722222222222221;100.0
64862;BME280;62652;42.274;-71.436;2023-10-31T01:07:00;100240.0;;;9.722222222222221;100.0
64862;BME280;62652;42.274;-71.436;2023-10-31T01:08:01;100240.0;;;9.722222222222221;100.0
64862;BME280;62652;42.274;-71.436;2023-10-31T01:09:01;100230.0;;;9.611111111111109;100.0
64862;BME280;62652;42.274;-71.436;2023-10-31T01:10:01;100230.0;;;9.611111111111109;100.0
64862;BME280;62652;42.274;-71.436;2023-10-31T01:11:01;100230.0;;;9.722222222222221;100.0
64862;BME280;62652;42.274;-71.436;2023-10-31T01:12:00;100240.0;;;9.722222222222221;100.0
64862;BME280;62652;42.274;-71.436;2023-10-31T01:13:00;100240.0;;;9.611111111111109;100.0
64862;BME280;62652;42.274;-71.436;2023-10-31T01:14:00;100240.0;;;9.722222222222221;100.0
64862;BME280;62652;42.274;-71.436;2023-10-31T01:15:01;100240.0;;;9.611111111111109;100.0
64862;BME280;62652;42.274;-71.436;2023-10-31T01:16:00;100240.0;;;9.722222222222221;100.0
64862;BME280;62652;42.274;-71.436;2023-10-31T01:17:01;100250.0;;;9.722222222222221;100.0
64862;BME280;62652;42.274;-71.436;2023-10-31T01:18:01;100250.0;;;9.722222222222221;100.0
64862;BME280;62652;42.274;-71.436;2023-10-31T01:19:00;100270.0;;;9.722222222222221;100.0
64862;BME280;62652;42.274;-71.436;2023-10-31T01:20:01;100270.0;;;9.722222222222221;100.0
64862;BME280;62652;42.274;-71.436;2023-10-31T01:21:01;100280.0;;;9.611111111111109;100.0
64862;BME280;62652;42.274;-71.436;2023-10-31T01:22:01;100290.0;;;9.722222222222221;100.0
64862;BME280;62652;42.274;-71.436;2023-10-31T01:23:00;100310.0;;;9.722222222222221;100.0
64862;BME280;62652;42.274;-71.436;2023-10-31T01:24:00;100320.0;;;9.722222222222221;100.0
64862;BME280;62652;42.274;-71.436;2023-10-31T01:25:01;100330.0;;;9.722222222222221;100.0
64862;BME280;62652;42.274;-71.436;2023-10-31T01:26:00;100330.0;;;9.777777777777779;100.0
64862;BME280;62652;42.274;-71.436;2023-10-31T01:27:01;100340.0;;;9.722222222222221;100.0
64862;BME280;62652;42.274;-71.436;2023-10-31T01:28:00;100340.0;;;9.722222222222221;100.0
64862;BME280;62652;42.274;-71.436;2023-10-31T01:29:00;100330.0;;;9.722222222222221;100.0
64862;BME280;62652;42.274;-71.436;2023-10-31T01:30:01;100320.0;;;9.722222222222221;100.0
64862;BME280;62652;42.274;-71.436;2023-10-31T01:31:01;100320.0;;;9.611111111111109;100.0
64862;BME280;62652;42.274;-71.436;2023-10-31T01:32:01;100320.0;;;9.611111111111109;100.0
64862;BME280;62652;42.274;-71.436;2023-10-31T01:33:00;100320.0;;;9.722222222222221;100.0
64862;BME280;62652;42.274;-71.436;2023-10-31T01:34:00;100320.0;;;9.722222222222221;100.0
64862;BME280;62652;42.274;-71.436;2023-10-31T01:35:01;100310.0;;;9.722222222222221;100.0
64862;BME280;62652;42.274;-71.436;2023-10-31T01:36:01;100310.0;;;9.722222222222221;100.0
64862;BME280;62652;42.274;-71.436;2023-10-31T01:37:00;100310.0;;;9.611111111111109;100.0
64862;BME280;62652;42.274;-71.436;2023-10-31T01:38:01;100310.0;;;9.777777777777779;100.0
64862;BME280;62652;42.274;-71.436;2023-10-31T01:39:00;100310.0;;;9.722222222222221;100.0
64862;BME280;62652;42.274;-71.436;2023-10-31T01:40:01;100310.0;;;9.777777777777779;100.0
64862;BME280;62652;42.274;-71.436;2023-10-31T01:41:01;100320.0;;;9.777777777777779;100.0
64862;BME280;62652;42.274;-71.436;2023-10-31T01:42:01;100330.0;;;9.722222222222221;100.0
64862;BME280;62652;42.274;-71.436;2023-10-31T01:43:01;100320.0;;;9.777777777777779;100.0
64862;BME280;62652;42.274;-71.436;2023-10-31T01:44:00;100320.0;;;9.777777777777779;100.0
64862;BME280;62652;42.274;-71.436;2023-10-31T01:45:00;100310.0;;;9.722222222222221;100.0
64862;BME280;62652;42.274;-71.436;2023-10-31T01:46:01;100310.0;;;9.722222222222221;100.0
64862;BME280;62652;42.274;-71.436;2023-10-31T01:47:01;100310.0;;;9.611111111111109;100.0
64862;BME280;62652;42.274;-71.436;2023-10-31T01:48:01;100320.0;;;9.722222222222221;100.0
64862;BME280;62652;42.274;-71.436;2023-10-31T01:49:01;100320.0;;;9.777777777777779;100.0
64862;BME280;62652;42.274;-71.436;2023-10-31T01:50:01;100330.0;;;9.777777777777779;100.0
64862;BME280;62652;42.274;-71.436;2023-10-31T01:51:02;100330.0;;;9.777777777777779;100.0
64862;BME280;62652;42.274;-71.436;2023-10-31T01:52:01;100330.0;;;9.777777777777779;100.0
64862;BME280;62652;42.274;-71.436;2023-10-31T01:53:01;100330.0;;;9.722222222222221;100.0
64862;BME280;62652;42.274;-71.436;2023-10-31T01:54:01;100340.0;;;9.722222222222221;100.0
64862;BME280;62652;42.274;-71.436;2023-10-31T01:55:01;100350.0;;;9.722222222222221;100.0
64862;BME280;62652;42.274;-71.436;2023-10-31T01:56:01;100350.0;;;9.611111111111109;100.0
64862;BME280;62652;42.274;-71.436;2023-10-31T01:57:01;100350.0;;;9.777777777777779;100.0
64862;BME280;62652;42.274;-71.436;2023-10-31T01:58:01;100360.0;;;9.777777777777779;100.0
64862;BME280;62652;42.274;-71.436;2023-10-31T01:59:01;100360.0;;;9.722222222222221;100.0
64862;BME280;62652;42.274;-71.436;2023-10-31T02:00:01;100370.0;;;9.777777777777779;100.0
64862;BME280;62652;42.274;-71.436;2023-10-31T02:01:01;100370.0;;;9.611111111111109;100.0
64862;BME280;62652;42.274;-71.436;2023-10-31T02:02:01;100370.0;;;9.722222222222221;100.0
64862;BME280;62652;42.274;-71.436;2023-10-31T02:03:02;100380.0;;;9.611111111111109;100.0
64862;BME280;62652;42.274;-71.436;2023-10-31T02:04:00;100380.0;;;9.611111111111109;100.0
64862;BME280;62652;42.274;-71.436;2023-10-31T02:05:01;100380.0;;;9.611111111111109;100.0
64862;BME280;62652;42.274;-71.436;2023-10-31T02:06:01;100380.0;;;9.611111111111109;100.0
64862;BME280;62652;42.274;-71.436;2023-10-31T02:07:00;100380.0;;;9.611111111111109;100.0
64862;BME280;62652;42.274;-71.436;2023-10-31T02:08:01;100390.0;;;9.5;100.0
64862;BME280;62652;42.274;-71.436;2023-10-31T02:09:00;100400.0;;;9.38888888888889;100.0
64862;BME280;62652;42.274;-71.436;2023-10-31T02:10:00;100400.0;;;9.38888888888889;100.0
64862;BME280;62652;42.274;-71.436;2023-10-31T02:11:00;100390.0;;;9.38888888888889;100.0
64862;BME280;62652;42.274;-71.436;2023-10-31T02:12:00;100390.0;;;9.5;100.0
64862;BME280;62652;42.274;-71.436;2023-10-31T02:13:10;100390.0;;;9.38888888888889;100.0
64862;BME280;62652;42.274;-71.436;2023-10-31T02:14:01;100390.0;;;9.38888888888889;100.0
64862;BME280;62652;42.274;-71.436;2023-10-31T02:15:01;100390.0;;;9.38888888888889;100.0
64862;BME280;62652;42.274;-71.436;2023-10-31T02:16:01;100390.0;;;9.38888888888889;100.0
64862;BME280;62652;42.274;-71.436;2023-10-31T02:17:01;100400.0;;;9.5;100.0
64862;BME280;62652;42.274;-71.436;2023-10-31T02:18:00;100400.0;;;9.5;100.0
64862;BME280;62652;42.274;-71.436;2023-10-31T02:19:00;100400.0;;;9.38888888888889;100.0
64862;BME280;62652;42.274;-71.436;2023-10-31T02:20:00;100400.0;;;9.38888888888889;100.0
64862;BME280;62652;42.274;-71.436;2023-10-31T02:21:01;100400.0;;;9.277777777777779;100.0
64862;BME280;62652;42.274;-71.436;2023-10-31T02:22:00;100400.0;;;9.277777777777779;100.0
64862;BME280;62652;42.274;-71.436;2023-10-31T02:23:01;100390.0;;;9.38888888888889;100.0
64862;BME280;62652;42.274;-71.436;2023-10-31T02:24:02;100400.0;;;9.277777777777779;100.0
64862;BME280;62652;42.274;-71.436;2023-10-31T02:25:00;100390.0;;;9.277777777777779;100.0
64862;BME280;62652;42.274;-71.436;2023-10-31T02:26:01;100390.0;;;9.5;100.0
64862;BME280;62652;42.274;-71.436;2023-10-31T02:27:03;100390.0;;;9.277777777777779;100.0
64862;BME280;62652;42.274;-71.436;2023-10-31T02:28:00;100390.0;;;9.222222222222221;100.0
64862;BME280;62652;42.274;-71.436;2023-10-31T02:29:01;100390.0;;;9.222222222222221;100.0
64862;BME280;62652;42.274;-71.436;2023-10-31T02:30:00;100400.0;;;9.222222222222221;100.0
64862;BME280;62652;42.274;-71.436;2023-10-31T02:31:01;100410.0;;;9.222222222222221;100.0
64862;BME280;62652;42.274;-71.436;2023-10-31T02:32:00;100420.0;;;9.222222222222221;100.0
64862;BME280;62652;42.274;-71.436;2023-10-31T02:33:00;100440.0;;;9.222222222222221;100.0
64862;BME280;62652;42.274;-71.436;2023-10-31T02:34:01;100450.0;;;9.222222222222221;100.0
64862;BME280;62652;42.274;-71.436;2023-10-31T02:35:00;100460.0;;;9.11111111111111;100.0
64862;BME280;62652;42.274;-71.436;2023-10-31T02:36:00;100450.0;;;9.000000000000002;100.0
64862;BME280;62652;42.274;-71.436;2023-10-31T02:37:01;100450.0;;;9.000000000000002;100.0
64862;BME280;62652;42.274;-71.436;2023-10-31T02:38:00;100450.0;;;9.000000000000002;100.0
64862;BME280;62652;42.274;-71.436;2023-10-31T02:39:01;100440.0;;;9.000000000000002;100.0
64862;BME280;62652;42.274;-71.436;2023-10-31T02:40:01;100440.0;;;9.11111111111111;100.0
64862;BME280;62652;42.274;-71.436;2023-10-31T02:41:00;100430.0;;;9.11111111111111;100.0
64862;BME280;62652;42.274;-71.436;2023-10-31T02:42:00;100440.0;;;9.000000000000002;100.0
64862;BME280;62652;42.274;-71.436;2023-10-31T02:43:01;100440.0;;;8.88888888888889;100.0
64862;BME280;62652;42.274;-71.436;2023-10-31T02:44:01;100430.0;;;8.88888888888889;100.0
64862;BME280;62652;42.274;-71.436;2023-10-31T02:45:00;100420.0;;;9.11111111111111;100.0
64862;BME280;62652;42.274;-71.436;2023-10-31T02:46:01;100430.0;;;9.11111111111111;100.0
64862;BME280;62652;42.274;-71.436;2023-10-31T02:47:01;100430.0;;;9.222222222222221;100.0
64862;BME280;62652;42.274;-71.436;2023-10-31T02:48:01;100450.0;;;9.11111111111111;100.0
64862;BME280;62652;42.274;-71.436;2023-10-31T02:49:01;100450.0;;;9.222222222222221;100.0
64862;BME280;62652;42.274;-71.436;2023-10-31T02:50:01;100460.0;;;9.11111111111111;100.0
64862;BME280;62652;42.274;-71.436;2023-10-31T02:51:00;100470.0;;;9.11111111111111;100.0
64862;BME280;62652;42.274;-71.436;2023-10-31T02:52:01;100480.0;;;9.000000000000002;100.0
64862;BME280;62652;42.274;-71.436;2023-10-31T02:53:02;100480.0;;;9.000000000000002;100.0
64862;BME280;62652;42.274;-71.436;2023-10-31T02:54:01;100480.0;;;9.11111111111111;100.0
64862;BME280;62652;42.274;-71.436;2023-10-31T02:55:00;100490.0;;;9.000000000000002;100.0
64862;BME280;62652;42.274;-71.436;2023-10-31T02:56:01;100500.0;;;9.000000000000002;100.0
64862;BME280;62652;42.274;-71.436;2023-10-31T02:57:01;100490.0;;;9.11111111111111;100.0
64862;BME280;62652;42.274;-71.436;2023-10-31T02:58:00;100480.0;;;9.000000000000002;100.0
64862;BME280;62652;42.274;-71.436;2023-10-31T02:59:00;100480.0;;;9.000000000000002;100.0
64862;BME280;62652;42.274;-71.436;2023-10-31T03:00:01;100490.0;;;8.88888888888889;100.0
64862;BME280;62652;42.274;-71.436;2023-10-31T03:01:00;100490.0;;;8.88888888888889;100.0
64862;BME280;62652;42.274;-71.436;2023-10-31T03:02:00;100500.0;;;9.000000000000002;100.0
64862;BME280;62652;42.274;-71.436;2023-10-31T03:03:00;100490.0;;;8.88888888888889;100.0
64862;BME280;62652;42.274;-71.436;2023-10-31T03:04:01;100500.0;;;9.000000000000002;100.0
64862;BME280;62652;42.274;-71.436;2023-10-31T03:05:01;100500.0;;;9.000000000000002;100.0
64862;BME280;62652;42.274;-71.436;2023-10-31T03:06:01;100500.0;;;8.88888888888889;100.0
64862;BME280;62652;42.274;-71.436;2023-10-31T03:07:00;100500.0;;;9.11111111111111;100.0
64862;BME280;62652;42.274;-71.436;2023-10-31T03:08:00;100500.0;;;9.000000000000002;100.0
64862;BME280;62652;42.274;-71.436;2023-10-31T03:09:00;100500.0;;;9.000000000000002;100.0
64862;BME280;62652;42.274;-71.436;2023-10-31T03:10:00;100500.0;;;9.000000000000002;100.0
64862;BME280;62652;42.274;-71.436;2023-10-31T03:11:00;100500.0;;;9.000000000000002;100.0
64862;BME280;62652;42.274;-71.436;2023-10-31T03:12:01;100510.0;;;8.88888888888889;100.0
64862;BME280;62652;42.274;-71.436;2023-10-31T03:13:01;100510.0;;;8.88888888888889;100.0
64862;BME280;62652;42.274;-71.436;2023-10-31T03:14:01;100510.0;;;8.88888888888889;100.0
64862;BME280;62652;42.274;-71.436;2023-10-31T03:15:01;100500.0;;;8.88888888888889;100.0
64862;BME280;62652;42.274;-71.436;2023-10-31T03:16:00;100500.0;;;8.88888888888889;100.0
64862;BME280;62652;42.274;-71.436;2023-10-31T03:17:00;100500.0;;;8.88888888888889;100.0
64862;BME280;62652;42.274;-71.436;2023-10-31T03:18:00;100500.0;;;8.88888888888889;100.0
64862;BME280;62652;42.274;-71.436;2023-10-31T03:19:01;100510.0;;;8.88888888888889;100.0
64862;BME280;62652;42.274;-71.436;2023-10-31T03:20:01;100510.0;;;8.88888888888889;100.0
64862;BME280;62652;42.274;-71.436;2023-10-31T03:21:00;100520.0;;;8.88888888888889;100.0
64862;BME280;62652;42.274;-71.436;2023-10-31T03:22:01;100520.0;;;8.88888888888889;100.0
64862;BME280;62652;42.274;-71.436;2023-10-31T03:23:01;100510.0;;;8.88888888888889;100.0
64862;BME280;62652;42.274;-71.436;2023-10-31T03:24:01;100500.0;;;8.88888888888889;100.0
64862;BME280;62652;42.274;-71.436;2023-10-31T03:25:00;100500.0;;;8.88888888888889;100.0
64862;BME280;62652;42.274;-71.436;2023-10-31T03:26:01;100510.0;;;8.777777777777777;100.0
64862;BME280;62652;42.274;-71.436;2023-10-31T03:27:01;100520.0;;;8.88888888888889;100.0
64862;BME280;62652;42.274;-71.436;2023-10-31T03:28:01;100530.0;;;8.88888888888889;100.0
64862;BME280;62652;42.274;-71.436;2023-10-31T03:29:00;100530.0;;;8.777777777777777;100.0
64862;BME280;62652;42.274;-71.436;2023-10-31T03:30:01;100520.0;;;8.777777777777777;100.0
64862;BME280;62652;42.274;-71.436;2023-10-31T03:31:00;100520.0;;;8.777777777777777;100.0
64862;BME280;62652;42.274;-71.436;2023-10-31T03:32:00;100520.0;;;8.88888888888889;100.0
64862;BME280;62652;42.274;-71.436;2023-10-31T03:33:00;100520.0;;;8.88888888888889;100.0
64862;BME280;62652;42.274;-71.436;2023-10-31T03:34:01;100540.0;;;8.777777777777777;100.0
64862;BME280;62652;42.274;-71.436;2023-10-31T03:35:01;100540.0;;;8.88888888888889;100.0
64862;BME280;62652;42.274;-71.436;2023-10-31T03:36:00;100550.0;;;8.777777777777777;100.0
64862;BME280;62652;42.274;-71.436;2023-10-31T03:37:01;100540.0;;;8.777777777777777;100.0
64862;BME280;62652;42.274;-71.436;2023-10-31T03:38:01;100550.0;;;8.777777777777777;100.0
64862;BME280;62652;42.274;-71.436;2023-10-31T03:39:01;100540.0;;;8.722222222222223;100.0
64862;BME280;62652;42.274;-71.436;2023-10-31T03:40:00;100550.0;;;8.61111111111111;100.0
64862;BME280;62652;42.274;-71.436;2023-10-31T03:41:00;100550.0;;;8.722222222222223;100.0
64862;BME280;62652;42.274;-71.436;2023-10-31T03:42:01;100560.0;;;8.722222222222223;100.0
64862;BME280;62652;42.274;-71.436;2023-10-31T03:43:00;100560.0;;;8.38888888888889;100.0
64862;BME280;62652;42.274;-71.436;2023-10-31T03:44:01;100550.0;;;8.499999999999998;100.0
64862;BME280;62652;42.274;-71.436;2023-10-31T03:45:01;100550.0;;;8.38888888888889;100.0
64862;BME280;62652;42.274;-71.436;2023-10-31T03:46:01;100560.0;;;8.277777777777779;100.0
64862;BME280;62652;42.274;-71.436;2023-10-31T03:47:00;100560.0;;;8.277777777777779;100.0
64862;BME280;62652;42.274;-71.436;2023-10-31T03:48:01;100550.0;;;8.277777777777779;100.0
64862;BME280;62652;42.274;-71.436;2023-10-31T03:49:01;100560.0;;;8.277777777777779;100.0
64862;BME280;62652;42.274;-71.436;2023-10-31T03:50:01;100560.0;;;8.38888888888889;100.0
64862;BME280;62652;42.274;-71.436;2023-10-31T03:51:00;100570.0;;;8.277777777777779;100.0
64862;BME280;62652;42.274;-71.436;2023-10-31T03:52:00;100560.0;;;8.38888888888889;100.0
64862;BME280;62652;42.274;-71.436;2023-10-31T03:53:00;100560.0;;;8.499999999999998;100.0
64862;BME280;62652;42.274;-71.436;2023-10-31T03:54:01;100560.0;;;8.277777777777779;100.0
64862;BME280;62652;42.274;-71.436;2023-10-31T03:55:00;100550.0;;;8.277777777777779;100.0
64862;BME280;62652;42.274;-71.436;2023-10-31T03:56:01;100560.0;;;8.222222222222221;100.0
64862;BME280;62652;42.274;-71.436;2023-10-31T03:57:00;100570.0;;;8.277777777777779;100.0
64862;BME280;62652;42.274;-71.436;2023-10-31T03:58:01;100570.0;;;8.277777777777779;100.0
64862;BME280;62652;42.274;-71.436;2023-10-31T03:59:00;100570.0;;;8.277777777777779;100.0
64862;BME280;62652;42.274;-71.436;2023-10-31T04:00:01;100580.0;;;8.277777777777779;100.0
64862;BME280;62652;42.274;-71.436;2023-10-31T04:01:00;100580.0;;;8.277777777777779;100.0
64862;BME280;62652;42.274;-71.436;2023-10-31T04:02:00;100580.0;;;8.277777777777779;100.0
64862;BME280;62652;42.274;-71.436;2023-10-31T04:03:00;100560.0;;;8.38888888888889;100.0
64862;BME280;62652;42.274;-71.436;2023-10-31T04:04:01;100560.0;;;8.277777777777779;100.0
64862;BME280;62652;42.274;-71.436;2023-10-31T04:05:01;100560.0;;;8.222222222222221;100.0
64862;BME280;62652;42.274;-71.436;2023-10-31T04:06:01;100560.0;;;8.222222222222221;100.0
64862;BME280;62652;42.274;-71.436;2023-10-31T04:07:00;100560.0;;;8.11111111111111;100.0
64862;BME280;62652;42.274;-71.436;2023-10-31T04:08:01;100560.0;;;8.222222222222221;100.0
64862;BME280;62652;42.274;-71.436;2023-10-31T04:09:00;100560.0;;;8.11111111111111;100.0
64862;BME280;62652;42.274;-71.436;2023-10-31T04:10:01;100570.0;;;8.11111111111111;100.0
64862;BME280;62652;42.274;-71.436;2023-10-31T04:11:01;100580.0;;;8.0;100.0
64862;BME280;62652;42.274;-71.436;2023-10-31T04:12:01;100600.0;;;8.0;100.0
64862;BME280;62652;42.274;-71.436;2023-10-31T04:13:00;100610.0;;;8.11111111111111;100.0
64862;BME280;62652;42.274;-71.436;2023-10-31T04:14:01;100610.0;;;8.0;100.0
64862;BME280;62652;42.274;-71.436;2023-10-31T04:15:01;100610.0;;;8.11111111111111;100.0
64862;BME280;62652;42.274;-71.436;2023-10-31T04:16:01;100620.0;;;8.0;100.0
64862;BME280;62652;42.274;-71.436;2023-10-31T04:17:01;100620.0;;;8.0;100.0
64862;BME280;62652;42.274;-71.436;2023-10-31T04:18:00;100610.0;;;8.0;100.0
64862;BME280;62652;42.274;-71.436;2023-10-31T04:19:00;100610.0;;;7.88888888888889;100.0
64862;BME280;62652;42.274;-71.436;2023-10-31T04:20:01;100610.0;;;7.88888888888889;100.0
64862;BME280;62652;42.274;-71.436;2023-10-31T04:21:01;100610.0;;;7.88888888888889;100.0
64862;BME280;62652;42.274;-71.436;2023-10-31T04:22:01;100610.0;;;7.88888888888889;100.0
64862;BME280;62652;42.274;-71.436;2023-10-31T04:23:00;100620.0;;;7.777777777777778;100.0
64862;BME280;62652;42.274;-71.436;2023-10-31T04:24:01;100630.0;;;7.88888888888889;100.0
64862;BME280;62652;42.274;-71.436;2023-10-31T04:25:00;100630.0;;;8.0;100.0
64862;BME280;62652;42.274;-71.436;2023-10-31T04:26:00;100620.0;;;7.88888888888889;100.0
64862;BME280;62652;42.274;-71.436;2023-10-31T04:27:01;100610.0;;;8.0;100.0
64862;BME280;62652;42.274;-71.436;2023-10-31T04:28:01;100610.0;;;7.88888888888889;100.0
64862;BME280;62652;42.274;-71.436;2023-10-31T04:29:01;100610.0;;;7.777777777777778;100.0
64862;BME280;62652;42.274;-71.436;2023-10-31T04:30:01;100600.0;;;7.777777777777778;100.0